메인 페이지
METAR-TAF:

METAR-TAF

공항 :

도쿄 국제공항

도쿄국제공항, 일본

위도: 35-33N, 경도: 139-47E, 고도: 5m

현재 날씨관측

예보는 30분 전, 01:30시(UTC)에 발표되었습니다.
남동7kt
온도 27°C
습도 70%
기압 1011 hPa
시정 10km 이상
1500m 미만 상공 구름 및 적란운 없음

METAR: RJTT 250130Z 13007KT CAVOK 27/21 Q1011 NOSIG RMK A2986

시각: 11:00 (02:00 UTC)

예보

예보는 2 시간 55분 전, 23:05시(UTC)에 발표되었습니다.
예보 대상 시간: 25일 00시부터 26일 06시까지 (UTC)
6kt
시정 10km 이상
고도 3000ft 상공 구름 조금
전환 중
25일 03시부터 25일 05시까지 (UTC)
12kt
전환 중
25일 10시부터 25일 12시까지 (UTC)
8kt
전환 중
25일 15시부터 25일 18시까지 (UTC)
북북동6kt
전환 중
25일 21시부터 26일 00시까지 (UTC)
14kt

TAF: RJTT 242305Z 2500/2606 10006KT 9999 FEW030 BECMG 2503/2505 18012KT BECMG 2510/2512 10008KT BECMG 2515/2518 03006KT BECMG 2521/2600 17014KT

4,000개 이상의 공항 관측 자료 및 예보 (METAR 및 TAF 보고).

지도상에서 검색 가능한 기상관측소가 노란 점과 빨간 점으로 표시되어 있습니다.

기상관측소 명을 보려면 표시 위로 마우스를 이동하세요.

날씨 관측과 예보를 보려면 클릭하세요.

지도 변경 : 확대하려면 엑스 표시가 있는 녹색 버튼, 축소하려면 빼기 표시가 있는 녹색 버튼, 다음 페이지의 지도를 보려면 녹색 화살표를 클릭하세요.


METAR-TAF: